Maria Noelle — WDD9564 — position and weather

sailwx.info

Track history (hours):
 
Tides and Currents Weather Stations Pressure Air Temp Water Temp Dewpoint Dewpoint Depression Visibility Wind Speed Wind Dir Waves Ship Positions

Maria Noelle

Owner: MUROS INC, POINT PLEASANT, NJ. More information available from US FCC via Universal Licensing System and Coast Guard Vessel Documentation Center.

Last reported at 2016-Aug-16 15:09 UTC. Time now 2016-Aug-28 06:51 UTC.
Position N 40°06' W 074°02'.
Warning: this ship's position is 11 days out of date.

Length 26 m.

Type: Fishing. MMSI: 367313170.

Date/timePositionNaut miles runAvg speedWind from/ knotsBaromVisibWave heightAir tempDewpointWater temp
2016-Aug-16 15:09N 40°06' W 074°02'0 0.0
2016-Aug-16 14:33N 40°06' W 074°02'9 6.5
2016-Aug-16 13:14N 40°05' W 073°51'6 8.4
2016-Aug-16 12:33N 40°05' W 073°44'20 2.5
2016-Aug-16 04:33N 40°03' W 073°17'0 0.4
2016-Aug-16 03:29N 40°03' W 073°18'2 1.2
2016-Aug-16 01:30N 40°03' W 073°15'6 5.0
2016-Aug-16 00:23N 40°04' W 073°22'8 8.0
2016-Aug-15 23:22N 40°04' W 073°33'10 8.4
2016-Aug-15 22:09N 40°05' W 073°46'5 8.0
2016-Aug-15 21:29N 40°05' W 073°53'7 7.7
2016-Aug-15 20:33N 40°06' W 074°02'0 0.1
2016-Aug-15 19:32N 40°06' W 074°02'0 0.0
2016-Aug-15 18:26N 40°06' W 074°02'0 0.0
2016-Aug-15 17:26N 40°06' W 074°02'41 5.6
2016-Aug-15 10:05N 40°03' W 073°09'39 3.3
2016-Aug-14 22:24N 40°06' W 073°60'  
2016-Aug-12 13:32N 40°06' W 074°02'0 0.0
2016-Aug-12 12:32N 40°06' W 074°02'27 1.9
2016-Aug-11 22:08N 40°04' W 073°27'5 8.5
2016-Aug-11 21:31N 40°04' W 073°33'20 8.6
2016-Aug-11 19:10N 40°06' W 073°60'2 2.3
2016-Aug-11 18:21N 40°06' W 074°02'0 0.0
2016-Aug-11 17:27N 40°06' W 074°02'0 0.0
2016-Aug-11 16:33N 40°06' W 074°02'2 0.1
2016-Aug-10 22:25N 40°06' W 074°00'2 1.9
2016-Aug-10 21:30N 40°06' W 074°02'0 0.0
2016-Aug-10 20:33N 40°06' W 074°02'0 0.0
2016-Aug-10 19:30N 40°06' W 074°02'0 0.0
2016-Aug-10 18:33N 40°06' W 074°02'0 0.0
2016-Aug-10 17:33N 40°06' W 074°02'0 0.0
2016-Aug-10 16:30N 40°06' W 074°02'0 0.0
2016-Aug-10 15:33N 40°06' W 074°02'32 2.4
2016-Aug-10 02:20N 40°03' W 073°20'6 7.0
2016-Aug-10 01:29N 40°04' W 073°28'24 8.3
2016-Aug-09 22:33N 40°06' W 073°60'2 2.1
2016-Aug-09 21:33N 40°06' W 074°02'0 0.0
2016-Aug-09 20:33N 40°06' W 074°02'0 0.0
2016-Aug-09 19:30N 40°06' W 074°02'0 0.0
2016-Aug-09 18:30N 40°06' W 074°02'0 0.0
2016-Aug-09 17:33N 40°06' W 074°02'13 5.7
2016-Aug-09 15:21N 40°07' W 073°46'7 8.6
2016-Aug-09 14:32N 40°07' W 073°37'9 8.6
2016-Aug-09 13:33N 40°08' W 073°26'5 5.3
2016-Aug-09 12:33N 40°07' W 073°19'2 2.1
2016-Aug-09 11:33N 40°08' W 073°21'0 0.4
2016-Aug-09 10:33N 40°08' W 073°22'0 0.1
2016-Aug-09 09:32N 40°08' W 073°22'2 1.8
2016-Aug-09 08:34N 40°07' W 073°20'2 2.1
2016-Aug-09 07:33N 40°08' W 073°22'0 0.1
2016-Aug-09 04:32N 40°09' W 073°22'0 0.3
2016-Aug-09 03:12N 40°08' W 073°22'1 1.6
2016-Aug-09 02:31N 40°08' W 073°21'5 5.0
2016-Aug-09 01:33N 40°09' W 073°27'8 8.2
2016-Aug-09 00:33N 40°08' W 073°38'8 8.3
2016-Aug-08 23:33N 40°07' W 073°48'8 8.3
2016-Aug-08 22:33N 40°06' W 073°59'2 2.1
2016-Aug-08 21:28N 40°06' W 074°02'0 0.0
2016-Aug-08 19:28N 40°06' W 074°02'0 0.0
2016-Aug-08 17:33N 40°06' W 074°02'2 0.1
2016-Aug-07 23:33N 40°06' W 073°60'  
Track history (hours):
 
Tides and Currents Weather Stations Pressure Air Temp Water Temp Dewpoint Dewpoint Depression Visibility Wind Speed Wind Dir Waves Ship Positions

Maria Noelle

Owner: MUROS INC, POINT PLEASANT, NJ. More information available from US FCC via Universal Licensing System and Coast Guard Vessel Documentation Center.

Last reported at 2016-Aug-16 15:09 UTC. Time now 2016-Aug-28 06:51 UTC.
Position N 40°06' W 074°02'.
Warning: this ship's position is 11 days out of date.

Length 26 m.

Type: Fishing. MMSI: 367313170.

Date/timePositionNaut miles runAvg speedWind from/ knotsBaromVisibWave heightAir tempDewpointWater temp
2016-Aug-16 15:09N 40°06' W 074°02'0 0.0
2016-Aug-16 14:33N 40°06' W 074°02'9 6.5
2016-Aug-16 13:14N 40°05' W 073°51'6 8.4
2016-Aug-16 12:33N 40°05' W 073°44'20 2.5
2016-Aug-16 04:33N 40°03' W 073°17'0 0.4
2016-Aug-16 03:29N 40°03' W 073°18'2 1.2
2016-Aug-16 01:30N 40°03' W 073°15'6 5.0
2016-Aug-16 00:23N 40°04' W 073°22'8 8.0
2016-Aug-15 23:22N 40°04' W 073°33'10 8.4
2016-Aug-15 22:09N 40°05' W 073°46'5 8.0
2016-Aug-15 21:29N 40°05' W 073°53'7 7.7
2016-Aug-15 20:33N 40°06' W 074°02'0 0.1
2016-Aug-15 19:32N 40°06' W 074°02'0 0.0
2016-Aug-15 18:26N 40°06' W 074°02'0 0.0
2016-Aug-15 17:26N 40°06' W 074°02'41 5.6
2016-Aug-15 10:05N 40°03' W 073°09'39 3.3
2016-Aug-14 22:24N 40°06' W 073°60'  
2016-Aug-12 13:32N 40°06' W 074°02'0 0.0
2016-Aug-12 12:32N 40°06' W 074°02'27 1.9
2016-Aug-11 22:08N 40°04' W 073°27'5 8.5
2016-Aug-11 21:31N 40°04' W 073°33'20 8.6
2016-Aug-11 19:10N 40°06' W 073°60'2 2.3
2016-Aug-11 18:21N 40°06' W 074°02'0 0.0
2016-Aug-11 17:27N 40°06' W 074°02'0 0.0
2016-Aug-11 16:33N 40°06' W 074°02'2 0.1
2016-Aug-10 22:25N 40°06' W 074°00'2 1.9
2016-Aug-10 21:30N 40°06' W 074°02'0 0.0
2016-Aug-10 20:33N 40°06' W 074°02'0 0.0
2016-Aug-10 19:30N 40°06' W 074°02'0 0.0
2016-Aug-10 18:33N 40°06' W 074°02'0 0.0
2016-Aug-10 17:33N 40°06' W 074°02'0 0.0
2016-Aug-10 16:30N 40°06' W 074°02'0 0.0
2016-Aug-10 15:33N 40°06' W 074°02'32 2.4
2016-Aug-10 02:20N 40°03' W 073°20'6 7.0
2016-Aug-10 01:29N 40°04' W 073°28'24 8.3
2016-Aug-09 22:33N 40°06' W 073°60'2 2.1
2016-Aug-09 21:33N 40°06' W 074°02'0 0.0
2016-Aug-09 20:33N 40°06' W 074°02'0 0.0
2016-Aug-09 19:30N 40°06' W 074°02'0 0.0
2016-Aug-09 18:30N 40°06' W 074°02'0 0.0
2016-Aug-09 17:33N 40°06' W 074°02'13 5.7
2016-Aug-09 15:21N 40°07' W 073°46'7 8.6
2016-Aug-09 14:32N 40°07' W 073°37'9 8.6
2016-Aug-09 13:33N 40°08' W 073°26'5 5.3
2016-Aug-09 12:33N 40°07' W 073°19'2 2.1
2016-Aug-09 11:33N 40°08' W 073°21'0 0.4
2016-Aug-09 10:33N 40°08' W 073°22'0 0.1
2016-Aug-09 09:32N 40°08' W 073°22'2 1.8
2016-Aug-09 08:34N 40°07' W 073°20'2 2.1
2016-Aug-09 07:33N 40°08' W 073°22'0 0.1
2016-Aug-09 04:32N 40°09' W 073°22'0 0.3
2016-Aug-09 03:12N 40°08' W 073°22'1 1.6
2016-Aug-09 02:31N 40°08' W 073°21'5 5.0
2016-Aug-09 01:33N 40°09' W 073°27'8 8.2
2016-Aug-09 00:33N 40°08' W 073°38'8 8.3
2016-Aug-08 23:33N 40°07' W 073°48'8 8.3
2016-Aug-08 22:33N 40°06' W 073°59'2 2.1
2016-Aug-08 21:28N 40°06' W 074°02'0 0.0
2016-Aug-08 19:28N 40°06' W 074°02'0 0.0
2016-Aug-08 17:33N 40°06' W 074°02'2 0.1
2016-Aug-07 23:33N 40°06' W 073°60'  

Dump ship's entire track history